Time,TemperatureF,DewpointF,PressureIn,WindDirection,WindDirectionDegrees,WindSpeedMPH,WindSpeedGustMPH,Humidity,HourlyPrecipIn,Conditions,Clouds,dailyrainin,SolarRadiationWatts/m^2,SoftwareType,DateUTC
2013-02-11 01:25:00,59.8,57.2,30.19,ESE,112,0.0,0.0,91,0.00,CLR,,0.00,0.0,WeatherDisplay:10.37,2013-02-11 06:25:00,
2013-02-11 01:26:00,59.8,57.2,30.19,ESE,111,0.0,0.0,91,0.00,CLR,,0.00,0.0,WeatherDisplay:10.37,2013-02-11 06:26:00,
2013-02-11 01:31:00,59.6,57.0,30.19,ESE,112,0.0,0.0,91,0.00,CLR,,0.00,0.0,WeatherDisplay:10.37,2013-02-11 06:31:00,
2013-02-11 01:36:00,59.4,56.8,30.19,ESE,112,0.0,0.0,91,0.00,CLR,,0.00,0.0,WeatherDisplay:10.37,2013-02-11 06:36:00,
2013-02-11 01:41:00,59.3,56.7,30.19,ESE,112,0.0,0.0,91,0.00,CLR,,0.00,0.0,WeatherDisplay:10.37,2013-02-11 06:41:00,
2013-02-11 01:46:00,59.2,56.6,30.19,ESE,111,0.0,0.0,91,0.00,CLR,,0.00,0.0,WeatherDisplay:10.37,2013-02-11 06:46:00,
2013-02-11 01:51:00,59.1,56.5,30.19,ESE,112,0.0,0.0,91,0.00,CLR,,0.00,0.0,WeatherDisplay:10.37,2013-02-11 06:51:00,
2013-02-11 01:56:00,59.1,56.8,30.19,ESE,112,0.0,0.0,92,0.00,CLR,,0.00,0.0,WeatherDisplay:10.37,2013-02-11 06:56:00,
2013-02-11 02:01:00,59.0,56.7,30.19,ESE,111,0.0,0.0,92,0.00,CLR,,0.00,0.0,WeatherDisplay:10.37,2013-02-11 07:01:00,
2013-02-11 02:06:00,59.1,56.8,30.19,ESE,112,0.0,0.0,92,0.00,CLR,,0.00,0.0,WeatherDisplay:10.37,2013-02-11 07:06:00,
2013-02-11 02:11:00,59.1,56.8,30.18,ESE,112,0.0,0.0,92,0.00,CLR,,0.00,0.0,WeatherDisplay:10.37,2013-02-11 07:11:00,
2013-02-11 02:16:00,59.3,57.3,30.18,ESE,111,0.1,1.1,93,0.00,CLR,,0.00,0.0,WeatherDisplay:10.37,2013-02-11 07:16:00,
2013-02-11 02:21:00,59.2,57.2,30.18,ESE,111,0.0,0.0,93,0.00,CLR,,0.00,0.0,WeatherDisplay:10.37,2013-02-11 07:21:00,
2013-02-11 02:26:00,59.1,57.1,30.18,ESE,112,0.0,0.0,93,0.00,CLR,,0.00,0.0,WeatherDisplay:10.37,2013-02-11 07:26:00,
2013-02-11 02:31:00,59.0,57.0,30.18,ESE,112,0.0,0.0,93,0.00,CLR,,0.00,0.0,WeatherDisplay:10.37,2013-02-11 07:31:00,
2013-02-11 02:36:00,58.9,56.9,30.18,ESE,112,0.0,0.0,93,0.00,CLR,,0.00,0.0,WeatherDisplay:10.37,2013-02-11 07:36:00,
2013-02-11 02:41:00,58.9,56.9,30.18,ESE,112,0.0,0.0,93,0.00,CLR,,0.00,0.0,WeatherDisplay:10.37,2013-02-11 07:41:00,
2013-02-11 02:46:00,58.9,56.9,30.18,ESE,112,0.0,0.0,93,0.00,CLR,,0.00,0.0,WeatherDisplay:10.37,2013-02-11 07:46:00,
2013-02-11 02:51:00,59.0,57.0,30.18,ESE,112,0.0,1.1,93,0.00,CLR,,0.00,0.0,WeatherDisplay:10.37,2013-02-11 07:51:00,
2013-02-11 02:56:00,59.0,57.0,30.18,ESE,112,0.0,0.0,93,0.00,CLR,,0.00,0.0,WeatherDisplay:10.37,2013-02-11 07:56:00,
2013-02-11 03:01:00,59.1,57.1,30.17,ESE,112,0.0,0.0,93,0.00,CLR,,0.00,0.0,WeatherDisplay:10.37,2013-02-11 08:01:00,
2013-02-11 03:06:00,59.3,57.3,30.17,ESE,112,0.6,2.3,93,0.00,CLR,,0.00,0.0,WeatherDisplay:10.37,2013-02-11 08:06:00,
2013-02-11 03:11:00,59.6,57.9,30.17,ESE,112,0.0,0.0,94,0.00,CLR,,0.00,0.0,WeatherDisplay:10.37,2013-02-11 08:11:00,
2013-02-11 03:16:00,59.7,58.0,30.17,ESE,112,0.0,0.0,94,0.00,CLR,,0.00,0.0,WeatherDisplay:10.37,2013-02-11 08:16:00,
2013-02-11 03:21:00,59.8,57.8,30.17,ESE,112,0.0,0.0,93,0.00,CLR,,0.00,0.0,WeatherDisplay:10.37,2013-02-11 08:21:00,
2013-02-11 03:26:00,59.8,58.1,30.17,ESE,112,0.0,0.0,94,0.00,CLR,,0.00,0.0,WeatherDisplay:10.37,2013-02-11 08:26:00,
2013-02-11 03:31:00,59.7,57.7,30.17,ESE,112,0.0,0.0,93,0.00,CLR,,0.00,0.0,WeatherDisplay:10.37,2013-02-11 08:31:00,
2013-02-11 03:36:00,59.6,57.6,30.16,ESE,112,0.0,0.0,93,0.00,CLR,,0.00,0.0,WeatherDisplay:10.37,2013-02-11 08:36:00,
2013-02-11 03:41:00,59.6,57.6,30.16,ESE,112,0.0,0.0,93,0.00,CLR,,0.00,0.0,WeatherDisplay:10.37,2013-02-11 08:41:00,
2013-02-11 03:46:00,59.8,58.1,30.16,ESE,112,0.0,0.0,94,0.00,CLR,,0.00,0.0,WeatherDisplay:10.37,2013-02-11 08:46:00,
2013-02-11 03:51:00,60.1,58.4,30.16,ESE,123,0.0,1.1,94,0.00,CLR,,0.00,0.0,WeatherDisplay:10.37,2013-02-11 08:51:00,
2013-02-11 03:56:00,60.3,58.6,30.16,SE,142,0.0,0.0,94,0.00,CLR,,0.00,0.0,WeatherDisplay:10.37,2013-02-11 08:56:00,
2013-02-11 04:01:00,60.5,58.8,30.15,SSE,165,0.0,2.3,94,0.00,CLR,,0.00,0.0,WeatherDisplay:10.37,2013-02-11 09:01:00,
2013-02-11 04:06:00,60.7,59.0,30.15,East,88,0.1,3.5,94,0.00,CLR,,0.00,0.0,WeatherDisplay:10.37,2013-02-11 09:06:00,
2013-02-11 04:11:00,60.9,59.2,30.16,East,90,0.3,2.3,94,0.00,CLR,,0.00,0.0,WeatherDisplay:10.37,2013-02-11 09:11:00,
2013-02-11 04:16:00,61.3,59.6,30.16,East,88,0.0,0.0,94,0.00,CLR,,0.00,0.0,WeatherDisplay:10.37,2013-02-11 09:16:00,
2013-02-11 04:21:00,61.4,59.4,30.16,SSE,158,0.0,0.0,93,0.00,CLR,,0.00,0.0,WeatherDisplay:10.37,2013-02-11 09:21:00,
2013-02-11 04:26:00,61.5,59.5,30.16,SSE,154,0.0,0.0,93,0.00,CLR,,0.00,0.0,WeatherDisplay:10.37,2013-02-11 09:26:00,
2013-02-11 04:31:00,61.6,59.6,30.16,SSE,155,0.0,0.0,93,0.00,CLR,,0.00,0.0,WeatherDisplay:10.37,2013-02-11 09:31:00,
2013-02-11 04:36:00,61.6,59.6,30.16,SSE,155,0.2,1.1,93,0.00,CLR,,0.00,0.0,WeatherDisplay:10.37,2013-02-11 09:36:00,
2013-02-11 04:41:00,61.6,59.3,30.16,SSE,152,0.0,1.1,92,0.00,CLR,,0.00,0.0,WeatherDisplay:10.37,2013-02-11 09:41:00,
2013-02-11 04:46:00,61.4,59.1,30.16,SSE,153,0.0,0.0,92,0.00,CLR,,0.00,0.0,WeatherDisplay:10.37,2013-02-11 09:46:00,
2013-02-11 04:51:00,61.4,59.1,30.16,SSE,153,0.1,1.1,92,0.00,CLR,,0.00,0.0,WeatherDisplay:10.37,2013-02-11 09:51:00,
2013-02-11 04:56:00,61.4,59.1,30.16,SSE,153,0.0,0.0,92,0.00,CLR,,0.00,0.0,WeatherDisplay:10.37,2013-02-11 09:56:00,
2013-02-11 05:01:00,61.3,59.0,30.17,SSE,153,0.0,0.0,92,0.00,CLR,,0.00,0.0,WeatherDisplay:10.37,2013-02-11 10:01:00,
2013-02-11 05:06:00,61.2,58.9,30.17,SSE,153,0.0,0.0,92,0.00,CLR,,0.00,0.0,WeatherDisplay:10.37,2013-02-11 10:06:00,
2013-02-11 05:11:00,61.0,58.7,30.17,SSE,153,0.0,0.0,92,0.00,CLR,,0.00,0.0,WeatherDisplay:10.37,2013-02-11 10:11:00,
2013-02-11 05:16:00,60.8,58.5,30.17,SSE,153,0.0,0.0,92,0.00,CLR,,0.00,0.0,WeatherDisplay:10.37,2013-02-11 10:16:00,
2013-02-11 05:21:00,60.6,58.3,30.17,SSE,153,0.0,0.0,92,0.00,CLR,,0.00,0.0,WeatherDisplay:10.37,2013-02-11 10:21:00,
2013-02-11 05:26:00,60.4,58.1,30.16,SSE,153,0.0,0.0,92,0.00,CLR,,0.00,0.0,WeatherDisplay:10.37,2013-02-11 10:26:00,
2013-02-11 05:31:00,60.1,57.8,30.17,SSE,153,0.0,0.0,92,0.00,CLR,,0.00,0.0,WeatherDisplay:10.37,2013-02-11 10:31:00,
2013-02-11 05:36:00,59.8,57.5,30.17,SSE,153,0.0,0.0,92,0.00,CLR,,0.00,0.0,WeatherDisplay:10.37,2013-02-11 10:36:00,
2013-02-11 05:41:00,59.8,57.5,30.17,SSE,153,0.0,0.0,92,0.00,CLR,,0.00,0.0,WeatherDisplay:10.37,2013-02-11 10:41:00,
2013-02-11 05:46:00,59.6,57.3,30.18,SSE,153,0.0,0.0,92,0.00,CLR,,0.00,0.0,WeatherDisplay:10.37,2013-02-11 10:46:00,
2013-02-11 05:51:00,59.7,57.7,30.18,SSE,153,0.0,0.0,93,0.00,CLR,,0.00,0.0,WeatherDisplay:10.37,2013-02-11 10:51:00,
2013-02-11 05:56:00,59.6,57.3,30.18,SSE,153,0.0,0.0,92,0.00,CLR,,0.00,0.0,WeatherDisplay:10.37,2013-02-11 10:56:00,
2013-02-11 06:01:00,59.4,57.4,30.18,SSE,153,0.0,0.0,93,0.00,CLR,,0.00,0.0,WeatherDisplay:10.37,2013-02-11 11:01:00,
2013-02-11 06:06:00,59.3,57.3,30.19,SSE,153,0.0,0.0,93,0.00,CLR,,0.00,0.0,WeatherDisplay:10.37,2013-02-11 11:06:00,
2013-02-11 06:11:00,59.2,57.2,30.19,SSE,153,0.0,0.0,93,0.00,CLR,,0.00,0.0,WeatherDisplay:10.37,2013-02-11 11:11:00,
2013-02-11 06:16:00,59.0,57.0,30.19,SSE,153,0.0,0.0,93,0.00,CLR,,0.00,0.0,WeatherDisplay:10.37,2013-02-11 11:16:00,
2013-02-11 06:21:00,58.9,56.9,30.19,SSE,153,0.0,0.0,93,0.00,CLR,,0.00,0.0,WeatherDisplay:10.37,2013-02-11 11:21:00,
2013-02-11 06:26:00,58.8,56.8,30.19,SSE,153,0.0,0.0,93,0.00,CLR,,0.00,0.0,WeatherDisplay:10.37,2013-02-11 11:26:00,
2013-02-11 06:31:00,58.7,56.7,30.19,SSE,153,0.0,0.0,93,0.00,CLR,,0.00,0.0,WeatherDisplay:10.37,2013-02-11 11:31:00,
2013-02-11 06:36:00,58.6,56.6,30.19,SSE,153,0.0,0.0,93,0.00,CLR,,0.00,0.0,WeatherDisplay:10.37,2013-02-11 11:36:00,
2013-02-11 06:41:00,58.3,56.3,30.19,SSE,153,0.0,0.0,93,0.00,CLR,,0.00,0.0,WeatherDisplay:10.37,2013-02-11 11:41:00,
2013-02-11 06:46:00,58.2,56.2,30.20,SSE,153,0.0,0.0,93,0.00,CLR,,0.00,0.0,WeatherDisplay:10.37,2013-02-11 11:46:00,
2013-02-11 06:51:00,58.0,56.0,30.20,SSE,153,0.0,0.0,93,0.00,CLR,,0.00,0.0,WeatherDisplay:10.37,2013-02-11 11:51:00,
2013-02-11 06:56:00,58.2,56.5,30.20,SSE,153,0.0,0.0,94,0.00,CLR,,0.00,0.0,WeatherDisplay:10.37,2013-02-11 11:56:00,
2013-02-11 07:01:00,58.1,56.1,30.20,SSE,153,0.0,0.0,93,0.00,SCT,,0.00,0.0,WeatherDisplay:10.37,2013-02-11 12:01:00,
2013-02-11 07:06:00,57.9,55.9,30.20,SSE,153,0.0,0.0,93,0.00,SCT,,0.00,5.0,WeatherDisplay:10.37,2013-02-11 12:06:00,
2013-02-11 07:11:00,57.7,55.7,30.20,SSE,153,0.0,0.0,93,0.00,SCT,,0.00,9.0,WeatherDisplay:10.37,2013-02-11 12:11:00,
2013-02-11 07:16:00,57.5,55.5,30.20,SSE,151,0.0,0.0,93,0.00,SCT,,0.00,12.0,WeatherDisplay:10.37,2013-02-11 12:16:00,
2013-02-11 07:21:00,57.5,55.5,30.20,SSE,153,0.0,0.0,93,0.00,SCT,,0.00,18.0,WeatherDisplay:10.37,2013-02-11 12:21:00,
2013-02-11 07:26:00,57.5,55.8,30.20,SSE,153,0.0,0.0,94,0.00,SCT,,0.00,21.0,WeatherDisplay:10.37,2013-02-11 12:26:00,
2013-02-11 07:31:00,57.4,55.7,30.21,SSE,153,0.0,0.0,94,0.00,SCT,,0.00,32.0,WeatherDisplay:10.37,2013-02-11 12:31:00,
2013-02-11 07:36:00,57.6,55.9,30.21,SSE,153,0.0,0.0,94,0.00,SCT,,0.00,44.0,WeatherDisplay:10.37,2013-02-11 12:36:00,
2013-02-11 07:41:00,57.8,56.1,30.21,SSE,153,0.0,0.0,94,0.00,SCT,,0.00,40.0,WeatherDisplay:10.37,2013-02-11 12:41:00,
2013-02-11 07:46:00,58.0,56.3,30.21,SSE,153,0.0,0.0,94,0.00,SCT,,0.00,62.0,WeatherDisplay:10.37,2013-02-11 12:46:00,
2013-02-11 07:51:00,58.2,56.5,30.21,SSE,153,0.0,0.0,94,0.00,SCT,,0.00,76.0,WeatherDisplay:10.37,2013-02-11 12:51:00,
2013-02-11 07:56:00,58.5,56.8,30.21,SSE,153,0.0,0.0,94,0.00,SCT,,0.00,91.0,WeatherDisplay:10.37,2013-02-11 12:56:00,
2013-02-11 08:01:00,59.1,57.7,30.21,SSE,153,0.0,0.0,95,0.00,FEW,,0.00,111.0,WeatherDisplay:10.37,2013-02-11 13:01:00,
2013-02-11 08:06:00,60.1,58.7,30.21,SSE,153,0.0,0.0,95,0.00,FEW,,0.00,128.0,WeatherDisplay:10.37,2013-02-11 13:06:00,
2013-02-11 08:11:00,60.9,59.5,30.21,SSE,154,0.0,0.0,95,0.00,FEW,,0.00,148.0,WeatherDisplay:10.37,2013-02-11 13:11:00,
2013-02-11 08:16:00,61.5,60.1,30.21,SSE,152,0.0,0.0,95,0.00,FEW,,0.00,165.0,WeatherDisplay:10.37,2013-02-11 13:16:00,
2013-02-11 08:21:00,62.2,60.8,30.21,SSE,153,0.0,0.0,95,0.00,FEW,,0.00,158.0,WeatherDisplay:10.37,2013-02-11 13:21:00,
2013-02-11 08:26:00,62.9,61.4,30.22,SSE,153,0.0,0.0,95,0.00,FEW,,0.00,199.0,WeatherDisplay:10.37,2013-02-11 13:26:00,
2013-02-11 08:31:00,63.9,62.4,30.22,SSE,153,0.0,0.0,95,0.00,FEW,,0.00,218.0,WeatherDisplay:10.37,2013-02-11 13:31:00,
2013-02-11 08:36:00,64.8,63.3,30.22,SSE,153,0.0,0.0,95,0.00,FEW,,0.00,236.0,WeatherDisplay:10.37,2013-02-11 13:36:00,
2013-02-11 08:41:00,65.4,63.9,30.22,SSE,152,0.0,1.1,95,0.00,FEW,,0.00,251.0,WeatherDisplay:10.37,2013-02-11 13:41:00,
2013-02-11 08:46:00,66.2,64.4,30.22,SSE,150,0.0,0.0,94,0.00,FEW,,0.00,274.0,WeatherDisplay:10.37,2013-02-11 13:46:00,
2013-02-11 08:51:00,67.3,65.2,30.22,SSE,150,0.1,1.1,93,0.00,FEW,,0.00,294.0,WeatherDisplay:10.37,2013-02-11 13:51:00,
2013-02-11 08:56:00,68.1,64.7,30.22,South,172,0.2,1.1,89,0.00,FEW,,0.00,308.0,WeatherDisplay:10.37,2013-02-11 13:56:00,
2013-02-11 09:01:00,68.9,64.2,30.23,SSE,167,1.2,3.5,85,0.00,FEW,,0.00,322.0,WeatherDisplay:10.37,2013-02-11 14:01:00,
2013-02-11 09:06:00,69.7,64.3,30.23,SSE,165,0.0,1.1,83,0.00,FEW,,0.00,338.0,WeatherDisplay:10.37,2013-02-11 14:06:00,
2013-02-11 09:11:00,70.3,64.2,30.23,ESE,123,0.2,2.0,81,0.00,FEW,,0.00,353.0,WeatherDisplay:10.37,2013-02-11 14:11:00,
2013-02-11 09:16:00,71.0,64.2,30.23,South,170,2.1,5.0,79,0.00,FEW,,0.00,371.0,WeatherDisplay:10.37,2013-02-11 14:16:00,
2013-02-11 09:21:00,71.6,64.4,30.23,SW,232,1.0,3.5,78,0.00,FEW,,0.00,385.0,WeatherDisplay:10.37,2013-02-11 14:21:00,
2013-02-11 09:26:00,72.0,64.0,30.23,South,182,3.1,6.9,76,0.00,FEW,,0.00,403.0,WeatherDisplay:10.37,2013-02-11 14:26:00,
2013-02-11 09:31:00,72.4,64.0,30.22,SSW,207,1.3,3.5,75,0.00,FEW,,0.00,415.0,WeatherDisplay:10.37,2013-02-11 14:31:00,
2013-02-11 09:36:00,72.9,64.1,30.23,East,98,0.2,1.1,74,0.00,FEW,,0.00,429.0,WeatherDisplay:10.37,2013-02-11 14:36:00,
2013-02-11 09:41:00,73.6,64.0,30.23,SE,143,0.1,3.5,72,0.00,FEW,,0.00,446.0,WeatherDisplay:10.37,2013-02-11 14:41:00,
2013-02-11 09:46:00,74.1,64.1,30.23,SSE,148,2.5,4.6,71,0.00,FEW,,0.00,461.0,WeatherDisplay:10.37,2013-02-11 14:46:00,
2013-02-11 09:51:00,74.3,64.3,30.23,SE,131,0.7,3.5,71,0.00,FEW,,0.00,475.0,WeatherDisplay:10.37,2013-02-11 14:51:00,
2013-02-11 09:56:00,74.5,63.2,30.23,ESE,110,2.6,6.9,68,0.00,FEW,,0.00,487.0,WeatherDisplay:10.37,2013-02-11 14:56:00,
2013-02-11 10:01:00,74.4,63.6,30.23,ESE,115,1.4,4.0,69,0.00,CLR,,0.00,503.0,WeatherDisplay:10.37,2013-02-11 15:01:00,
2013-02-11 10:06:00,74.5,63.2,30.23,South,172,4.2,8.1,68,0.00,CLR,,0.00,513.0,WeatherDisplay:10.37,2013-02-11 15:06:00,
2013-02-11 10:13:00,75.0,63.3,30.23,South,189,2.1,4.6,67,0.00,CLR,,0.00,534.0,WeatherDisplay:10.37,2013-02-11 15:13:00,
2013-02-11 10:18:00,75.3,63.6,30.23,SE,138,1.6,6.9,67,0.00,CLR,,0.00,554.0,WeatherDisplay:10.37,2013-02-11 15:18:00,
2013-02-11 10:23:00,75.4,63.7,30.23,South,171,0.1,3.0,67,0.00,CLR,,0.00,563.0,WeatherDisplay:10.37,2013-02-11 15:23:00,
2013-02-11 10:28:00,75.8,63.2,30.23,SW,215,1.5,2.3,65,0.00,CLR,,0.00,570.0,WeatherDisplay:10.37,2013-02-11 15:28:00,
2013-02-11 10:33:00,76.3,62.8,30.23,South,191,1.0,3.5,63,0.00,CLR,,0.00,585.0,WeatherDisplay:10.37,2013-02-11 15:33:00,
2013-02-11 10:38:00,76.5,62.5,30.23,SSW,209,2.1,6.0,62,0.00,CLR,,0.00,598.0,WeatherDisplay:10.37,2013-02-11 15:38:00,
2013-02-11 10:43:00,76.7,62.2,30.23,South,177,1.3,3.5,61,0.00,CLR,,0.00,613.0,WeatherDisplay:10.37,2013-02-11 15:43:00,
2013-02-11 10:48:00,77.3,62.8,30.22,SSE,155,3.4,4.6,61,0.00,CLR,,0.00,628.0,WeatherDisplay:10.37,2013-02-11 15:48:00,
2013-02-11 10:53:00,77.5,62.0,30.22,South,172,1.7,5.0,59,0.00,CLR,,0.00,638.0,WeatherDisplay:10.37,2013-02-11 15:53:00,
2013-02-11 10:58:00,77.6,62.1,30.22,ESE,102,3.1,4.6,59,0.00,CLR,,0.00,650.0,WeatherDisplay:10.37,2013-02-11 15:58:00,
2013-02-11 11:03:00,77.5,60.6,30.22,South,180,2.4,5.8,56,0.00,CLR,,0.00,664.0,WeatherDisplay:10.37,2013-02-11 16:03:00,
2013-02-11 11:08:00,77.3,61.4,30.22,East,101,1.6,6.9,58,0.00,CLR,,0.00,686.0,WeatherDisplay:10.37,2013-02-11 16:08:00,
2013-02-11 11:14:00,78.0,62.0,30.21,SSE,155,0.3,1.1,58,0.00,CLR,,0.00,680.0,WeatherDisplay:10.37,2013-02-11 16:14:00,
2013-02-11 11:19:00,78.9,61.9,30.21,SSE,164,0.2,3.5,56,0.00,CLR,,0.00,691.0,WeatherDisplay:10.37,2013-02-11 16:19:00,
2013-02-11 11:24:00,79.2,60.6,30.21,SW,222,2.8,5.8,53,0.00,CLR,,0.00,719.0,WeatherDisplay:10.37,2013-02-11 16:24:00,
2013-02-11 11:29:00,79.0,61.5,30.20,SW,229,1.6,3.5,55,0.00,CLR,,0.00,721.0,WeatherDisplay:10.37,2013-02-11 16:29:00,
2013-02-11 11:34:00,79.3,61.2,30.20,WSW,247,1.7,3.5,54,0.00,CLR,,0.00,715.0,WeatherDisplay:10.37,2013-02-11 16:34:00,
2013-02-11 11:39:00,79.0,60.4,30.20,SSE,166,1.1,5.8,53,0.00,CLR,,0.00,724.0,WeatherDisplay:10.37,2013-02-11 16:39:00,
2013-02-11 11:44:00,79.1,61.5,30.20,SW,216,2.3,10.4,55,0.00,CLR,,0.00,385.0,WeatherDisplay:10.37,2013-02-11 16:44:00,
2013-02-11 11:49:00,78.9,61.4,30.20,SSW,205,2.5,9.2,55,0.00,CLR,,0.00,348.0,WeatherDisplay:10.37,2013-02-11 16:49:00,
2013-02-11 11:54:00,79.3,61.7,30.20,SE,144,1.2,3.5,55,0.00,CLR,,0.00,754.0,WeatherDisplay:10.37,2013-02-11 16:54:00,
2013-02-11 11:59:00,79.6,61.0,30.19,SE,134,3.7,6.9,53,0.00,CLR,,0.00,816.0,WeatherDisplay:10.37,2013-02-11 16:59:00,
2013-02-11 12:04:00,79.6,61.5,30.19,ESE,105,3.5,4.6,54,0.00,SCT,,0.00,810.0,WeatherDisplay:10.37,2013-02-11 17:04:00,
2013-02-11 12:09:00,79.3,61.2,30.19,SSE,148,1.2,4.6,54,0.00,SCT,,0.00,798.0,WeatherDisplay:10.37,2013-02-11 17:09:00,
2013-02-11 12:14:00,79.5,61.9,30.19,SSE,163,0.2,2.3,55,0.00,SCT,,0.00,796.0,WeatherDisplay:10.37,2013-02-11 17:14:00,
2013-02-11 12:19:00,79.7,61.6,30.18,WSW,249,0.0,2.3,54,0.00,SCT,,0.00,851.0,WeatherDisplay:10.37,2013-02-11 17:19:00,
2013-02-11 12:24:00,80.0,61.9,30.18,SW,217,2.5,3.5,54,0.00,SCT,,0.00,863.0,WeatherDisplay:10.37,2013-02-11 17:24:00,
2013-02-11 12:29:00,80.4,61.2,30.18,South,171,2.3,6.9,52,0.00,SCT,,0.00,833.0,WeatherDisplay:10.37,2013-02-11 17:29:00,
2013-02-11 12:34:00,80.5,60.7,30.18,SSE,166,1.7,4.6,51,0.00,SCT,,0.00,220.0,WeatherDisplay:10.37,2013-02-11 17:34:00,
2013-02-11 12:39:00,79.7,61.1,30.17,SSW,192,0.6,4.0,53,0.00,SCT,,0.00,323.0,WeatherDisplay:10.37,2013-02-11 17:39:00,
2013-02-11 12:44:00,79.6,61.5,30.17,SSE,164,0.8,3.5,54,0.00,SCT,,0.00,779.0,WeatherDisplay:10.37,2013-02-11 17:44:00,
2013-02-11 12:49:00,80.2,62.0,30.17,SSE,163,0.8,3.5,54,0.00,SCT,,0.00,232.0,WeatherDisplay:10.37,2013-02-11 17:49:00,
2013-02-11 12:54:00,80.3,61.6,30.17,ESE,121,0.2,1.1,53,0.00,SCT,,0.00,220.0,WeatherDisplay:10.37,2013-02-11 17:54:00,
2013-02-11 12:59:00,79.7,61.6,30.17,ENE,76,1.1,3.5,54,0.00,SCT,,0.00,269.0,WeatherDisplay:10.37,2013-02-11 17:59:00,
2013-02-11 13:04:00,79.7,61.6,30.16,SW,232,1.2,3.5,54,0.00,SCT,,0.00,717.0,WeatherDisplay:10.37,2013-02-11 18:04:00,
2013-02-11 13:09:00,79.6,61.5,30.16,SSE,159,1.6,6.9,54,0.00,SCT,,0.00,475.0,WeatherDisplay:10.37,2013-02-11 18:09:00,
2013-02-11 13:14:00,79.6,61.0,30.16,South,180,1.8,8.0,53,0.00,SCT,,0.00,281.0,WeatherDisplay:10.37,2013-02-11 18:14:00,
2013-02-11 13:19:00,79.2,61.6,30.15,SE,134,0.5,2.3,55,0.00,SCT,,0.00,246.0,WeatherDisplay:10.37,2013-02-11 18:19:00,
2013-02-11 13:24:00,78.9,60.8,30.15,South,187,1.2,4.6,54,0.00,SCT,,0.00,262.0,WeatherDisplay:10.37,2013-02-11 18:24:00,
2013-02-11 13:29:00,78.7,61.2,30.15,SSE,161,1.2,4.6,55,0.00,SCT,,0.00,262.0,WeatherDisplay:10.37,2013-02-11 18:29:00,
2013-02-11 13:34:00,78.7,61.2,30.14,South,188,0.7,5.0,55,0.00,SCT,,0.00,250.0,WeatherDisplay:10.37,2013-02-11 18:34:00,
2013-02-11 13:39:00,78.7,61.2,30.14,South,184,1.3,6.0,55,0.00,SCT,,0.00,239.0,WeatherDisplay:10.37,2013-02-11 18:39:00,
2013-02-11 13:44:00,78.8,61.8,30.14,SSE,165,0.0,1.1,56,0.00,SCT,,0.00,279.0,WeatherDisplay:10.37,2013-02-11 18:44:00,
2013-02-11 13:49:00,79.5,61.4,30.14,SW,217,0.0,1.1,54,0.00,SCT,,0.00,258.0,WeatherDisplay:10.37,2013-02-11 18:49:00,
2013-02-11 13:54:00,80.5,61.8,30.13,East,82,1.8,3.5,53,0.00,SCT,,0.00,837.0,WeatherDisplay:10.37,2013-02-11 18:54:00,
2013-02-11 13:59:00,81.4,61.5,30.13,SE,143,0.3,3.5,51,0.00,SCT,,0.00,687.0,WeatherDisplay:10.37,2013-02-11 18:59:00,
2013-02-11 14:04:00,82.5,61.4,30.13,SW,225,2.7,5.0,49,0.00,BKN,,0.00,691.0,WeatherDisplay:10.37,2013-02-11 19:04:00,
2013-02-11 14:09:00,82.5,61.4,30.12,SW,222,0.6,3.0,49,0.00,BKN,,0.00,722.0,WeatherDisplay:10.37,2013-02-11 19:09:00,
2013-02-11 14:14:00,83.1,60.8,30.12,SW,227,4.5,9.2,47,0.00,BKN,,0.00,756.0,WeatherDisplay:10.37,2013-02-11 19:14:00,
2013-02-11 14:19:00,83.7,61.9,30.12,SSW,213,1.3,7.0,48,0.00,BKN,,0.00,686.0,WeatherDisplay:10.37,2013-02-11 19:19:00,
2013-02-11 14:24:00,83.3,61.6,30.12,South,175,0.7,2.3,48,0.00,BKN,,0.00,728.0,WeatherDisplay:10.37,2013-02-11 19:24:00,
2013-02-11 14:29:00,83.2,60.9,30.12,SSW,194,1.2,3.5,47,0.00,BKN,,0.00,714.0,WeatherDisplay:10.37,2013-02-11 19:29:00,
2013-02-11 14:34:00,83.5,61.7,30.12,WSW,247,1.7,5.8,48,0.00,BKN,,0.00,661.0,WeatherDisplay:10.37,2013-02-11 19:34:00,
2013-02-11 14:39:00,83.5,61.7,30.12,West,262,1.3,2.3,48,0.00,BKN,,0.00,589.0,WeatherDisplay:10.37,2013-02-11 19:39:00,
2013-02-11 14:44:00,83.5,62.3,30.11,SW,221,0.8,5.0,49,0.00,BKN,,0.00,587.0,WeatherDisplay:10.37,2013-02-11 19:44:00,
2013-02-11 14:49:00,83.5,61.7,30.11,South,190,0.8,4.0,48,0.00,BKN,,0.00,160.0,WeatherDisplay:10.37,2013-02-11 19:49:00,
2013-02-11 14:54:00,82.7,61.6,30.11,SE,146,0.3,2.0,49,0.00,BKN,,0.00,582.0,WeatherDisplay:10.37,2013-02-11 19:54:00,
2013-02-11 14:59:00,82.4,61.3,30.11,SSW,194,1.5,3.0,49,0.00,BKN,,0.00,503.0,WeatherDisplay:10.37,2013-02-11 19:59:00,
2013-02-11 15:04:00,82.0,59.8,30.11,South,171,0.6,3.5,47,0.00,SCT,,0.00,577.0,WeatherDisplay:10.37,2013-02-11 20:04:00,
2013-02-11 15:09:00,81.9,60.9,30.11,SW,225,0.3,4.6,49,0.00,SCT,,0.00,418.0,WeatherDisplay:10.37,2013-02-11 20:09:00,
2013-02-11 15:14:00,81.4,60.4,30.10,South,190,0.8,3.5,49,0.00,SCT,,0.00,578.0,WeatherDisplay:10.37,2013-02-11 20:14:00,
2013-02-11 15:19:00,81.6,60.6,30.10,SSW,207,1.8,5.8,49,0.00,SCT,,0.00,434.0,WeatherDisplay:10.37,2013-02-11 20:19:00,
2013-02-11 15:24:00,81.0,60.6,30.10,SSW,198,2.2,4.6,50,0.00,SCT,,0.00,135.0,WeatherDisplay:10.37,2013-02-11 20:24:00,
2013-02-11 15:29:00,80.3,60.5,30.10,SSW,204,1.1,3.5,51,0.00,SCT,,0.00,176.0,WeatherDisplay:10.37,2013-02-11 20:29:00,
2013-02-11 15:34:00,80.4,60.6,30.10,SSW,211,0.1,3.5,51,0.00,SCT,,0.00,554.0,WeatherDisplay:10.37,2013-02-11 20:34:00,
2013-02-11 15:39:00,81.0,61.7,30.10,SSE,167,0.6,3.5,52,0.00,SCT,,0.00,450.0,WeatherDisplay:10.37,2013-02-11 20:39:00,
2013-02-11 15:44:00,81.2,60.8,30.10,SW,215,0.0,3.5,50,0.00,SCT,,0.00,179.0,WeatherDisplay:10.37,2013-02-11 20:44:00,
2013-02-11 15:49:00,81.2,61.4,30.10,SE,139,0.3,2.0,51,0.00,SCT,,0.00,148.0,WeatherDisplay:10.37,2013-02-11 20:49:00,
2013-02-11 16:24:00,79.0,64.4,30.09,SSW,209,1.3,5.0,61,0.00,SCT,,0.00,304.0,WeatherDisplay:10.37,2013-02-11 21:24:00,
2013-02-11 16:29:00,78.5,64.4,30.09,SSE,161,1.6,3.5,62,0.00,SCT,,0.00,272.0,WeatherDisplay:10.37,2013-02-11 21:29:00,
2013-02-11 16:34:00,78.3,64.7,30.09,ESE,103,1.7,6.9,63,0.00,SCT,,0.00,65.0,WeatherDisplay:10.37,2013-02-11 21:34:00,
2013-02-11 16:39:00,78.0,64.4,30.09,ESE,121,1.6,3.5,63,0.00,SCT,,0.00,60.0,WeatherDisplay:10.37,2013-02-11 21:39:00,
2013-02-11 16:44:00,77.8,64.2,30.09,South,175,0.9,3.5,63,0.00,SCT,,0.00,58.0,WeatherDisplay:10.37,2013-02-11 21:44:00,
2013-02-11 16:49:00,77.5,64.4,30.09,East,96,0.8,5.0,64,0.00,SCT,,0.00,54.0,WeatherDisplay:10.37,2013-02-11 21:49:00,
2013-02-11 16:54:00,77.3,64.2,30.09,East,96,0.5,2.3,64,0.00,SCT,,0.00,53.0,WeatherDisplay:10.37,2013-02-11 21:54:00,
2013-02-11 16:59:00,77.1,64.4,30.09,SE,136,3.1,4.6,65,0.00,SCT,,0.00,60.0,WeatherDisplay:10.37,2013-02-11 21:59:00,
2013-02-11 17:04:00,76.9,64.2,30.09,SSE,159,0.3,1.1,65,0.00,FEW,,0.00,72.0,WeatherDisplay:10.37,2013-02-11 22:04:00,
2013-02-11 17:09:00,76.8,64.1,30.09,ESE,113,0.7,4.6,65,0.00,FEW,,0.00,125.0,WeatherDisplay:10.37,2013-02-11 22:09:00,
2013-02-11 17:14:00,76.7,64.5,30.09,ESE,107,0.5,2.3,66,0.00,FEW,,0.00,98.0,WeatherDisplay:10.37,2013-02-11 22:14:00,
2013-02-11 17:19:00,76.4,64.6,30.09,SW,229,1.5,4.6,67,0.00,FEW,,0.00,74.0,WeatherDisplay:10.37,2013-02-11 22:19:00,
2013-02-11 17:24:00,75.9,64.6,30.09,ESE,107,1.7,4.6,68,0.00,FEW,,0.00,37.0,WeatherDisplay:10.37,2013-02-11 22:24:00,
2013-02-11 17:29:00,75.4,64.5,30.09,SE,126,1.0,2.3,69,0.00,FEW,,0.00,33.0,WeatherDisplay:10.37,2013-02-11 22:29:00,
2013-02-11 17:34:00,74.9,64.0,30.09,ESE,112,1.1,3.5,69,0.00,FEW,,0.00,28.0,WeatherDisplay:10.37,2013-02-11 22:34:00,
2013-02-11 17:39:00,74.5,64.1,30.09,South,180,0.0,3.5,70,0.00,FEW,,0.00,26.0,WeatherDisplay:10.37,2013-02-11 22:39:00,
2013-02-11 17:44:00,74.2,64.2,30.09,ESE,115,1.2,3.5,71,0.00,FEW,,0.00,21.0,WeatherDisplay:10.37,2013-02-11 22:44:00,
2013-02-11 17:49:00,73.9,64.3,30.09,SSW,207,1.5,6.9,72,0.00,FEW,,0.00,18.0,WeatherDisplay:10.37,2013-02-11 22:49:00,
2013-02-11 17:54:00,73.6,64.0,30.09,ESE,115,1.1,4.6,72,0.00,FEW,,0.00,14.0,WeatherDisplay:10.37,2013-02-11 22:54:00,
2013-02-11 17:59:00,73.3,64.1,30.09,East,96,0.7,2.3,73,0.00,FEW,,0.00,12.0,WeatherDisplay:10.37,2013-02-11 22:59:00,
2013-02-11 18:04:00,73.1,64.3,30.10,ESE,102,2.0,4.6,74,0.00,CLR,,0.00,9.0,WeatherDisplay:10.37,2013-02-11 23:04:00,
2013-02-11 18:09:00,72.8,64.4,30.10,ESE,120,2.0,4.6,75,0.00,CLR,,0.00,5.0,WeatherDisplay:10.37,2013-02-11 23:09:00,
2013-02-11 18:14:00,72.5,64.1,30.10,ESE,112,2.0,6.9,75,0.00,CLR,,0.00,0.0,WeatherDisplay:10.37,2013-02-11 23:14:00,
2013-02-11 18:19:00,72.3,64.3,30.10,ESE,108,1.4,3.5,76,0.00,CLR,,0.00,0.0,WeatherDisplay:10.37,2013-02-11 23:19:00,
2013-02-11 18:24:00,72.1,64.1,30.10,East,90,1.2,5.8,76,0.00,CLR,,0.00,0.0,WeatherDisplay:10.37,2013-02-11 23:24:00,
2013-02-11 18:29:00,71.9,63.9,30.10,ESE,102,0.3,3.5,76,0.00,CLR,,0.00,0.0,WeatherDisplay:10.37,2013-02-11 23:29:00,
2013-02-11 18:34:00,71.7,64.1,30.10,ESE,105,0.8,3.5,77,0.00,CLR,,0.00,0.0,WeatherDisplay:10.37,2013-02-11 23:34:00,
2013-02-11 18:39:00,71.5,63.9,30.10,East,96,0.1,3.5,77,0.00,CLR,,0.00,0.0,WeatherDisplay:10.37,2013-02-11 23:39:00,
2013-02-11 18:44:00,71.3,64.1,30.10,SE,126,0.3,2.3,78,0.00,CLR,,0.00,0.0,WeatherDisplay:10.37,2013-02-11 23:44:00,
2013-02-11 18:49:00,71.1,64.3,30.11,ESE,109,0.4,3.5,79,0.00,CLR,,0.00,0.0,WeatherDisplay:10.37,2013-02-11 23:49:00,
2013-02-11 18:54:00,70.9,64.1,30.11,ESE,108,0.2,1.1,79,0.00,CLR,,0.00,0.0,WeatherDisplay:10.37,2013-02-11 23:54:00,
2013-02-11 18:59:00,70.7,63.9,30.11,ESE,106,0.6,3.5,79,0.00,CLR,,0.00,0.0,WeatherDisplay:10.37,2013-02-11 23:59:00,
2013-02-11 19:04:00,70.5,64.0,30.11,East,93,0.0,2.3,80,0.00,CLR,,0.00,0.0,WeatherDisplay:10.37,2013-02-12 00:04:00,
2013-02-11 19:09:00,70.3,63.8,30.11,ESE,119,0.1,1.1,80,0.00,CLR,,0.00,0.0,WeatherDisplay:10.37,2013-02-12 00:09:00,
2013-02-11 19:14:00,70.2,63.7,30.11,ESE,120,0.8,3.5,80,0.00,CLR,,0.00,0.0,WeatherDisplay:10.37,2013-02-12 00:14:00,
2013-02-11 19:19:00,70.0,63.9,30.11,ESE,117,0.7,2.0,81,0.00,CLR,,0.00,0.0,WeatherDisplay:10.37,2013-02-12 00:19:00,
2013-02-11 19:24:00,69.8,63.7,30.11,ESE,115,1.0,3.5,81,0.00,CLR,,0.00,0.0,WeatherDisplay:10.37,2013-02-12 00:24:00,
2013-02-11 19:29:00,69.7,63.6,30.11,ESE,105,0.5,3.5,81,0.00,CLR,,0.00,0.0,WeatherDisplay:10.37,2013-02-12 00:29:00,
2013-02-11 19:34:00,69.6,63.9,30.12,ESE,103,0.5,2.3,82,0.00,CLR,,0.00,0.0,WeatherDisplay:10.37,2013-02-12 00:34:00,
2013-02-11 19:39:00,69.5,63.8,30.12,ESE,105,0.2,3.0,82,0.00,CLR,,0.00,0.0,WeatherDisplay:10.37,2013-02-12 00:39:00,
2013-02-11 19:44:00,69.3,63.6,30.12,ESE,106,0.0,1.1,82,0.00,CLR,,0.00,0.0,WeatherDisplay:10.37,2013-02-12 00:44:00,
2013-02-11 19:49:00,69.1,63.4,30.12,ESE,106,0.0,0.0,82,0.00,CLR,,0.00,0.0,WeatherDisplay:10.37,2013-02-12 00:49:00,
2013-02-11 19:54:00,69.0,63.3,30.12,South,180,0.1,1.1,82,0.00,CLR,,0.00,0.0,WeatherDisplay:10.37,2013-02-12 00:54:00,
2013-02-11 19:59:00,68.8,63.1,30.12,South,169,0.0,1.1,82,0.00,CLR,,0.00,0.0,WeatherDisplay:10.37,2013-02-12 00:59:00,
2013-02-11 20:04:00,68.7,63.3,30.12,SSE,161,0.1,3.5,83,0.00,CLR,,0.00,0.0,WeatherDisplay:10.37,2013-02-12 01:04:00,
2013-02-11 20:09:00,68.6,63.2,30.12,East,95,0.7,3.5,83,0.00,CLR,,0.00,0.0,WeatherDisplay:10.37,2013-02-12 01:09:00,
2013-02-11 20:14:00,68.4,63.0,30.12,East,96,0.0,0.0,83,0.00,CLR,,0.00,0.0,WeatherDisplay:10.37,2013-02-12 01:14:00,
2013-02-11 20:19:00,68.3,62.9,30.12,East,99,0.8,3.5,83,0.00,CLR,,0.00,0.0,WeatherDisplay:10.37,2013-02-12 01:19:00,
2013-02-11 20:24:00,68.2,62.8,30.12,East,100,0.0,0.0,83,0.00,CLR,,0.00,0.0,WeatherDisplay:10.37,2013-02-12 01:24:00,
2013-02-11 20:29:00,68.1,62.7,30.13,ESE,105,0.4,2.3,83,0.00,CLR,,0.00,0.0,WeatherDisplay:10.37,2013-02-12 01:29:00,
2013-02-11 20:34:00,67.9,62.5,30.12,ESE,104,0.0,2.3,83,0.00,CLR,,0.00,0.0,WeatherDisplay:10.37,2013-02-12 01:34:00,
2013-02-11 20:39:00,67.8,62.8,30.13,SSW,212,0.0,2.3,84,0.00,CLR,,0.00,0.0,WeatherDisplay:10.37,2013-02-12 01:39:00,
2013-02-11 20:44:00,67.7,62.7,30.13,ESE,110,0.7,2.3,84,0.00,CLR,,0.00,0.0,WeatherDisplay:10.37,2013-02-12 01:44:00,
2013-02-11 20:49:00,67.6,62.6,30.12,ESE,111,0.0,0.0,84,0.00,CLR,,0.00,0.0,WeatherDisplay:10.37,2013-02-12 01:49:00,
2013-02-11 20:54:00,67.5,62.5,30.13,SSE,155,0.0,0.0,84,0.00,CLR,,0.00,0.0,WeatherDisplay:10.37,2013-02-12 01:54:00,
2013-02-11 20:59:00,67.4,62.4,30.13,SSE,162,0.1,0.0,84,0.00,CLR,,0.00,0.0,WeatherDisplay:10.37,2013-02-12 01:59:00,
2013-02-11 21:04:00,67.3,62.3,30.13,SE,138,0.4,2.3,84,0.00,CLR,,0.00,0.0,WeatherDisplay:10.37,2013-02-12 02:04:00,
2013-02-11 21:09:00,67.2,62.2,30.13,SE,139,0.4,3.5,84,0.00,CLR,,0.00,0.0,WeatherDisplay:10.37,2013-02-12 02:09:00,
2013-02-11 21:14:00,67.2,62.2,30.13,South,174,1.1,4.0,84,0.00,CLR,,0.00,0.0,WeatherDisplay:10.37,2013-02-12 02:14:00,
2013-02-11 21:19:00,67.1,62.1,30.12,SSE,164,0.0,1.1,84,0.00,CLR,,0.00,0.0,WeatherDisplay:10.37,2013-02-12 02:19:00,
2013-02-11 21:24:00,67.1,62.1,30.13,SSE,165,0.5,3.5,84,0.00,CLR,,0.00,0.0,WeatherDisplay:10.37,2013-02-12 02:24:00,
2013-02-11 21:29:00,67.1,62.1,30.13,SE,130,0.2,2.3,84,0.00,CLR,,0.00,0.0,WeatherDisplay:10.37,2013-02-12 02:29:00,
2013-02-11 21:34:00,67.1,62.1,30.13,SE,131,0.2,1.1,84,0.00,CLR,,0.00,0.0,WeatherDisplay:10.37,2013-02-12 02:34:00,
2013-02-11 21:39:00,67.2,62.2,30.13,SSW,196,1.0,3.5,84,0.00,CLR,,0.00,0.0,WeatherDisplay:10.37,2013-02-12 02:39:00,
2013-02-11 21:44:00,67.3,62.3,30.13,South,189,0.8,3.5,84,0.00,CLR,,0.00,0.0,WeatherDisplay:10.37,2013-02-12 02:44:00,
2013-02-11 21:49:00,67.4,62.4,30.13,South,184,1.7,3.5,84,0.00,CLR,,0.00,0.0,WeatherDisplay:10.37,2013-02-12 02:49:00,
2013-02-11 21:54:00,67.5,62.5,30.13,South,184,0.0,1.1,84,0.00,CLR,,0.00,0.0,WeatherDisplay:10.37,2013-02-12 02:54:00,
2013-02-11 21:59:00,67.5,62.5,30.13,South,189,0.0,0.0,84,0.00,CLR,,0.00,0.0,WeatherDisplay:10.37,2013-02-12 02:59:00,
2013-02-11 22:04:00,67.5,62.5,30.13,South,176,0.1,1.1,84,0.00,BKN,,0.00,0.0,WeatherDisplay:10.37,2013-02-12 03:04:00,
2013-02-11 22:09:00,67.5,62.5,30.13,SSE,152,0.6,2.3,84,0.00,BKN,,0.00,0.0,WeatherDisplay:10.37,2013-02-12 03:09:00,
2013-02-11 22:14:00,67.4,62.4,30.13,SE,124,0.0,1.1,84,0.00,BKN,,0.00,0.0,WeatherDisplay:10.37,2013-02-12 03:14:00,
2013-02-11 22:19:00,67.4,62.4,30.13,East,89,0.0,0.0,84,0.00,BKN,,0.00,0.0,WeatherDisplay:10.37,2013-02-12 03:19:00,
2013-02-11 22:24:00,67.3,62.3,30.13,SSW,201,1.7,3.5,84,0.00,BKN,,0.00,0.0,WeatherDisplay:10.37,2013-02-12 03:24:00,
2013-02-11 22:29:00,67.4,62.4,30.13,SSW,210,0.1,1.1,84,0.00,BKN,,0.00,0.0,WeatherDisplay:10.37,2013-02-12 03:29:00,
2013-02-11 22:34:00,67.4,62.4,30.12,South,175,1.0,3.5,84,0.00,BKN,,0.00,0.0,WeatherDisplay:10.37,2013-02-12 03:34:00,
2013-02-11 22:39:00,67.4,62.4,30.12,SSE,161,0.0,3.0,84,0.00,BKN,,0.00,0.0,WeatherDisplay:10.37,2013-02-12 03:39:00,
2013-02-11 22:44:00,67.3,62.3,30.12,South,169,0.0,0.0,84,0.00,BKN,,0.00,0.0,WeatherDisplay:10.37,2013-02-12 03:44:00,
2013-02-11 22:49:00,67.4,62.7,30.12,ESE,104,0.8,3.5,85,0.00,BKN,,0.00,0.0,WeatherDisplay:10.37,2013-02-12 03:49:00,
2013-02-11 22:54:00,67.4,62.7,30.12,South,174,0.9,3.5,85,0.00,BKN,,0.00,0.0,WeatherDisplay:10.37,2013-02-12 03:54:00,
2013-02-11 22:59:00,67.5,62.8,30.12,SSE,167,0.8,3.5,85,0.00,BKN,,0.00,0.0,WeatherDisplay:10.37,2013-02-12 03:59:00,
2013-02-11 23:04:00,67.6,62.9,30.12,ESE,116,0.0,2.3,85,0.00,CLR,,0.00,0.0,WeatherDisplay:10.37,2013-02-12 04:04:00,
2013-02-11 23:09:00,67.6,62.9,30.12,SE,130,0.4,3.5,85,0.00,CLR,,0.00,0.0,WeatherDisplay:10.37,2013-02-12 04:09:00,
2013-02-11 23:14:00,67.7,63.0,30.12,South,188,0.4,2.3,85,0.00,CLR,,0.00,0.0,WeatherDisplay:10.37,2013-02-12 04:14:00,
2013-02-11 23:19:00,67.8,62.8,30.12,SE,130,2.7,4.6,84,0.00,CLR,,0.00,0.0,WeatherDisplay:10.37,2013-02-12 04:19:00,
2013-02-11 23:24:00,67.8,62.8,30.12,SE,133,0.9,3.5,84,0.00,CLR,,0.00,0.0,WeatherDisplay:10.37,2013-02-12 04:24:00,
2013-02-11 23:29:00,67.7,62.7,30.12,South,173,0.2,4.0,84,0.00,CLR,,0.00,0.0,WeatherDisplay:10.37,2013-02-12 04:29:00,
2013-02-11 23:34:00,67.7,63.0,30.12,South,184,0.5,3.5,85,0.00,CLR,,0.00,0.0,WeatherDisplay:10.37,2013-02-12 04:34:00,
2013-02-11 23:39:00,67.7,63.0,30.12,South,184,0.0,0.0,85,0.00,CLR,,0.00,0.0,WeatherDisplay:10.37,2013-02-12 04:39:00,
2013-02-11 23:44:00,67.5,62.8,30.12,South,186,0.6,3.5,85,0.00,CLR,,0.00,0.0,WeatherDisplay:10.37,2013-02-12 04:44:00,
2013-02-11 23:49:00,67.5,62.8,30.12,SSE,159,0.0,0.0,85,0.00,CLR,,0.00,0.0,WeatherDisplay:10.37,2013-02-12 04:49:00,
2013-02-11 23:54:00,67.4,62.7,30.12,SSW,212,0.0,0.0,85,0.00,CLR,,0.00,0.0,WeatherDisplay:10.37,2013-02-12 04:54:00,
2013-02-11 23:59:00,67.2,62.5,30.12,SSW,206,0.0,0.0,85,0.00,CLR,,0.00,0.0,WeatherDisplay:10.37,2013-02-12 04:59:00,